Forside
METAR-TAF:

METAR-TAF

Lufthavne :

Wheeling - Ohio County Airport

Wheeling, West Virginia, USA

Breddekreds: 40-10-13N, længdekreds: 080-38-40W, højde: 364 m

Aktuelle vejr

Denne rapport blev lavet for 19 minutter siden, kl. 17:53 UTC
Vind 11 kt fra sydsydvest
Temperatur 9°C
Fugtighed 27%
Tryk 1019 hPa
Sigt: 16.1 km
Overskyet i en højde af 10000 ft

METAR: KHLG 231753Z 21011KT 10SM OVC100 09/M09 A3010 RMK AO2 SLP203 T00941094 10100 21006 58025

Tid: 13:12 (18:12 UTC)

Vejrudsigter

Denne rapport blev lavet for 52 minutter siden, kl. 17:20 UTC
Foreløbig gælder fra 23 på 18 UTC til 24 på 18 UTC
Vind 10 kt fra sydsydvest med vindstød på up til 18 kt
Sigt: 10 km
Spredte skyer i en højde af 7000 ft
Fra 23 på 2300 UTC
Vind 6 kt fra sydsydvest
Sigt: 10 km
Brudte skyer i en højde af 5000 ft

TAF: KHLG 231720Z 2318/2418 21010G18KT P6SM SCT070 FM232300 20006KT P6SM BKN050

Vejrobservationer og prognoser fra mere end 4000 lufthavne (METAR og TAF).

De gule og røde prikker repræsenterer de meteorologiske stationer.

Flyt musen over at se navnet på stationen.

Så klik over at se vejr observationer og prognoser.

At skifte det kort: Klik på de grønne knapper med et sort kors for at zoome ind; på den grønne knap med en bindestreg for at zoome ud; eller på de grønne pile for tilstødende kort.


METAR-TAF: